createdAt,value
2019-02-15T00:00:01.183Z,2.59
2019-02-15T00:02:49.390Z,2.42
2019-02-15T00:05:37.452Z,2.51
2019-02-15T00:08:25.043Z,2.40
2019-02-15T00:11:12.980Z,2.44
2019-02-15T00:14:01.313Z,2.19
2019-02-15T00:16:49.191Z,2.20
2019-02-15T00:19:40.954Z,2.26
2019-02-15T00:22:29.201Z,2.19
2019-02-15T00:25:17.028Z,2.51
2019-02-15T00:28:04.913Z,2.44
2019-02-15T00:30:52.845Z,2.16
2019-02-15T00:33:41.108Z,1.96
2019-02-15T00:36:28.690Z,1.97
2019-02-15T00:39:16.472Z,2.05
2019-02-15T00:42:04.534Z,2.27
2019-02-15T00:44:52.431Z,2.34
2019-02-15T00:47:43.892Z,2.07
2019-02-15T00:50:56.529Z,2.15
2019-02-15T00:53:52.604Z,2.24
2019-02-15T00:57:08.847Z,2.38
2019-02-15T01:00:15.791Z,2.43
2019-02-15T01:03:28.440Z,2.40
2019-02-15T01:06:44.710Z,2.45
2019-02-15T01:09:46.632Z,2.24
2019-02-15T01:12:40.289Z,2.19
2019-02-15T01:15:28.350Z,2.11
2019-02-15T01:18:15.942Z,2.08
2019-02-15T01:21:03.757Z,1.85
2019-02-15T01:23:51.934Z,1.81
2019-02-15T01:26:42.436Z,1.97
2019-02-15T01:29:52.247Z,1.97
2019-02-15T01:32:51.882Z,1.76
2019-02-15T01:35:54.292Z,1.73
2019-02-15T01:39:04.290Z,1.80
2019-02-15T01:42:23.198Z,1.89
2019-02-15T01:45:23.844Z,2.19
2019-02-15T01:48:12.250Z,1.99
2019-02-15T01:51:00.331Z,1.91
2019-02-15T01:53:48.726Z,1.65
2019-02-15T01:56:36.364Z,1.67
2019-02-15T01:59:24.808Z,1.33
2019-02-15T02:02:12.677Z,1.35
2019-02-15T02:05:00.817Z,1.62
2019-02-15T02:07:49.172Z,1.89
2019-02-15T02:10:37.153Z,1.82
2019-02-15T02:13:24.800Z,1.80
2019-02-15T02:16:12.985Z,1.69
2019-02-15T02:19:00.513Z,1.69
2019-02-15T02:21:48.669Z,1.69
2019-02-15T02:24:36.480Z,1.69
2019-02-15T02:27:24.638Z,1.66
2019-02-15T02:30:12.612Z,1.70
2019-02-15T02:33:00.629Z,1.62
2019-02-15T02:35:48.893Z,1.42
2019-02-15T02:38:36.776Z,1.31
2019-02-15T02:41:24.356Z,1.45
2019-02-15T02:44:12.331Z,1.15
2019-02-15T02:47:00.267Z,1.08
2019-02-15T02:49:48.599Z,0.97
2019-02-15T02:52:36.128Z,0.98
2019-02-15T02:55:24.342Z,0.94
2019-02-15T02:58:12.168Z,0.97
2019-02-15T03:01:00.059Z,0.92
2019-02-15T03:03:47.868Z,0.80
2019-02-15T03:06:35.792Z,0.95
2019-02-15T03:09:23.347Z,1.08
2019-02-15T03:12:11.516Z,1.08
2019-02-15T03:14:59.670Z,0.99
2019-02-15T03:17:47.623Z,0.73
2019-02-15T03:20:35.555Z,0.83
2019-02-15T03:23:23.397Z,0.89
2019-02-15T03:26:11.306Z,1.12
2019-02-15T03:28:59.436Z,1.16
2019-02-15T03:31:47.500Z,0.84
2019-02-15T03:34:36.511Z,0.87
2019-02-15T03:38:01.694Z,0.87
2019-02-15T03:40:52.996Z,0.61
2019-02-15T03:43:41.050Z,0.57
2019-02-15T03:46:29.148Z,0.86
2019-02-15T03:49:17.289Z,0.81
2019-02-15T03:52:05.373Z,0.36
2019-02-15T03:54:53.753Z,0.65
2019-02-15T03:57:41.549Z,0.44
2019-02-15T04:00:29.538Z,0.49
2019-02-15T04:03:17.067Z,0.43
2019-02-15T04:06:05.047Z,0.49
2019-02-15T04:08:53.348Z,0.66
2019-02-15T04:11:41.445Z,0.65
2019-02-15T04:14:32.759Z,0.42
2019-02-15T04:17:21.870Z,0.48
2019-02-15T04:20:10.010Z,0.35
2019-02-15T04:22:58.190Z,0.39
2019-02-15T04:25:46.170Z,0.22
2019-02-15T04:28:34.154Z,0.14
2019-02-15T04:31:21.994Z,0.46
2019-02-15T04:34:09.840Z,0.40
2019-02-15T04:36:58.212Z,0.36
2019-02-15T04:39:46.542Z,0.43
2019-02-15T04:42:34.233Z,0.39
2019-02-15T04:45:22.109Z,0.40
2019-02-15T04:48:10.300Z,0.42
2019-02-15T04:50:58.841Z,0.41
2019-02-15T04:53:46.894Z,0.41
2019-02-15T04:56:34.479Z,0.27
2019-02-15T04:59:22.339Z,0.26
2019-02-15T05:02:10.314Z,0.80
2019-02-15T05:04:58.225Z,0.74
2019-02-15T05:07:46.099Z,0.81
2019-02-15T05:10:34.365Z,0.78
2019-02-15T05:13:22.798Z,0.70
2019-02-15T05:16:10.996Z,0.50
2019-02-15T05:18:59.150Z,0.58
2019-02-15T05:21:46.681Z,0.57
2019-02-15T05:24:35.034Z,0.13
2019-02-15T05:27:22.927Z,0.36
2019-02-15T05:30:11.176Z,0.31
2019-02-15T05:32:59.360Z,0.13
2019-02-15T05:35:47.411Z,0.04
2019-02-15T05:38:35.074Z,0.11
2019-02-15T05:41:22.933Z,0.08
2019-02-15T05:44:10.885Z,0.11
2019-02-15T05:46:59.052Z,0.06
2019-02-15T05:49:47.139Z,0.09
2019-02-15T05:52:35.378Z,-0.05
2019-02-15T05:55:23.504Z,-0.11
2019-02-15T05:58:11.870Z,-0.15
2019-02-15T06:01:00.389Z,-0.16
2019-02-15T06:03:48.347Z,-0.06
2019-02-15T06:06:36.263Z,-0.08
2019-02-15T06:09:24.549Z,0.19
2019-02-15T06:12:12.605Z,-0.16
2019-02-15T06:15:00.411Z,0.06
2019-02-15T06:17:48.805Z,-0.13
2019-02-15T06:20:36.952Z,-0.13
2019-02-15T06:23:24.662Z,-0.10
2019-02-15T06:26:12.555Z,-0.07
2019-02-15T06:29:00.634Z,-0.09
2019-02-15T06:31:49.168Z,-0.19
2019-02-15T06:34:37.159Z,-0.21
2019-02-15T06:37:25.282Z,-0.13
2019-02-15T06:40:13.203Z,-0.13
2019-02-15T06:43:01.213Z,-0.07
2019-02-15T06:45:49.416Z,0.10
2019-02-15T06:48:37.022Z,0.12
2019-02-15T06:51:25.075Z,0.25
2019-02-15T06:54:13.163Z,0.45
2019-02-15T06:57:01.178Z,0.47
2019-02-15T07:00:06.842Z,0.34
2019-02-15T07:02:59.415Z,0.15
2019-02-15T07:05:47.380Z,0.40
2019-02-15T07:08:35.223Z,0.33
2019-02-15T07:11:23.572Z,0.06
2019-02-15T07:14:11.841Z,0.19
2019-02-15T07:16:59.887Z,0.32
2019-02-15T07:19:48.083Z,0.39
2019-02-15T07:22:36.380Z,0.52
2019-02-15T07:25:24.435Z,0.65
2019-02-15T07:28:12.237Z,0.80
2019-02-15T07:31:00.181Z,0.89
2019-02-15T07:33:48.627Z,0.90
2019-02-15T07:36:36.759Z,1.58
2019-02-15T07:39:24.955Z,2.68
2019-02-15T07:42:13.169Z,3.65
2019-02-15T07:45:01.040Z,4.41
2019-02-15T07:47:49.011Z,5.07
2019-02-15T07:50:36.807Z,5.25
2019-02-15T07:53:24.363Z,5.47
2019-02-15T07:56:12.479Z,5.80
2019-02-15T07:59:00.515Z,6.03
2019-02-15T08:01:48.375Z,5.92
2019-02-15T08:04:36.347Z,5.81
2019-02-15T08:07:24.528Z,5.97
2019-02-15T08:10:12.634Z,5.79
2019-02-15T08:13:00.491Z,6.00
2019-02-15T08:15:52.022Z,5.98
2019-02-15T08:18:37.647Z,6.08
2019-02-15T08:21:25.564Z,6.41
2019-02-15T08:24:13.826Z,6.12
2019-02-15T08:27:01.803Z,6.16
2019-02-15T08:29:49.787Z,6.40
2019-02-15T08:32:37.717Z,6.46
2019-02-15T08:35:25.933Z,6.71
2019-02-15T08:38:14.023Z,6.69
2019-02-15T08:41:02.025Z,6.18
2019-02-15T08:43:49.992Z,6.24
2019-02-15T08:46:38.365Z,6.05
2019-02-15T08:49:26.152Z,5.81
2019-02-15T08:52:14.788Z,5.56
2019-02-15T08:55:03.010Z,5.57
2019-02-15T08:57:51.135Z,5.70
2019-02-15T09:00:39.276Z,5.89
2019-02-15T09:03:27.345Z,5.94
2019-02-15T09:06:15.430Z,5.91
2019-02-15T09:09:05.101Z,6.01
2019-02-15T09:11:52.929Z,6.06
2019-02-15T09:14:41.236Z,5.95
2019-02-15T09:17:29.358Z,5.90
2019-02-15T09:20:17.498Z,5.78
2019-02-15T09:23:05.781Z,5.65
2019-02-15T09:25:53.651Z,5.48
2019-02-15T09:28:46.216Z,5.47
2019-02-15T09:31:34.103Z,5.48
2019-02-15T09:34:21.900Z,5.60
2019-02-15T09:37:09.923Z,5.90
2019-02-15T09:39:57.784Z,5.78
2019-02-15T09:42:45.678Z,5.83
2019-02-15T09:45:33.263Z,6.01
2019-02-15T09:48:20.996Z,6.02
2019-02-15T09:51:09.275Z,6.04
2019-02-15T09:53:57.550Z,6.12
2019-02-15T09:56:45.757Z,6.25
2019-02-15T09:59:33.858Z,6.35
2019-02-15T10:02:21.744Z,6.39
2019-02-15T10:05:09.499Z,6.50
2019-02-15T10:07:57.613Z,6.64
2019-02-15T10:10:45.816Z,6.74
2019-02-15T10:13:34.003Z,6.57
2019-02-15T10:16:28.623Z,6.75
2019-02-15T10:19:11.565Z,6.47
2019-02-15T10:21:59.593Z,6.36
2019-02-15T10:24:48.503Z,6.68
2019-02-15T10:27:36.099Z,6.88
2019-02-15T10:30:24.172Z,6.91
2019-02-15T10:33:12.142Z,6.87
2019-02-15T10:36:00.352Z,6.63
2019-02-15T10:38:48.064Z,6.79
2019-02-15T10:41:36.250Z,6.98
2019-02-15T10:44:26.183Z,7.22
2019-02-15T10:47:22.953Z,7.32
2019-02-15T10:50:05.170Z,7.45
2019-02-15T10:52:53.340Z,7.58
2019-02-15T10:55:41.422Z,7.54
2019-02-15T10:58:29.410Z,7.62
2019-02-15T11:01:17.593Z,7.59
2019-02-15T11:04:05.425Z,7.59
2019-02-15T11:06:53.041Z,7.42
2019-02-15T11:09:40.911Z,7.62
2019-02-15T11:12:29.167Z,7.63
2019-02-15T11:15:17.279Z,7.88
2019-02-15T11:18:05.472Z,7.73
2019-02-15T11:20:53.625Z,8.02
2019-02-15T11:23:41.895Z,8.05
2019-02-15T11:26:29.920Z,8.32
2019-02-15T11:29:18.326Z,8.46
2019-02-15T11:32:06.730Z,8.49
2019-02-15T11:34:54.921Z,8.46
2019-02-15T11:37:42.893Z,8.72
2019-02-15T11:40:31.180Z,8.69
2019-02-15T11:43:19.321Z,8.81
2019-02-15T11:46:07.579Z,8.63
2019-02-15T11:48:55.181Z,8.74
2019-02-15T11:51:43.222Z,8.76
2019-02-15T11:54:31.450Z,8.87
2019-02-15T11:57:19.300Z,9.02
2019-02-15T12:00:14.315Z,9.09
2019-02-15T12:02:58.903Z,9.07
2019-02-15T12:05:47.108Z,9.24
2019-02-15T12:08:35.197Z,9.22
2019-02-15T12:11:23.226Z,9.34
2019-02-15T12:14:10.839Z,9.25
2019-02-15T12:17:05.508Z,9.35
2019-02-15T12:19:48.848Z,9.35
2019-02-15T12:22:37.123Z,9.46
2019-02-15T12:25:25.687Z,9.65
2019-02-15T12:28:13.525Z,9.61
2019-02-15T12:31:01.522Z,9.66
2019-02-15T12:33:49.498Z,9.73
2019-02-15T12:36:37.685Z,9.82
2019-02-15T12:39:25.581Z,9.86
2019-02-15T12:42:13.471Z,9.89
2019-02-15T12:45:01.403Z,9.94
2019-02-15T12:47:49.065Z,10.04
2019-02-15T12:50:37.182Z,10.05
2019-02-15T12:53:24.722Z,10.08
2019-02-15T12:56:12.838Z,10.06
2019-02-15T12:59:00.981Z,9.96
2019-02-15T13:01:48.773Z,10.11
2019-02-15T13:04:36.612Z,10.11
2019-02-15T13:07:24.845Z,10.25
2019-02-15T13:10:15.349Z,10.26
2019-02-15T13:13:03.542Z,10.37
2019-02-15T13:15:51.317Z,10.44
2019-02-15T13:18:39.909Z,10.42
2019-02-15T13:21:27.997Z,10.38
2019-02-15T13:24:16.029Z,10.43
2019-02-15T13:27:03.922Z,10.50
2019-02-15T13:29:51.504Z,10.53
2019-02-15T13:32:39.622Z,10.54
2019-02-15T13:35:28.054Z,10.52
2019-02-15T13:38:15.982Z,10.70
2019-02-15T13:41:03.825Z,10.81
2019-02-15T13:43:51.623Z,10.92
2019-02-15T13:46:39.741Z,11.22
2019-02-15T13:49:27.609Z,11.03
2019-02-15T13:52:15.651Z,11.10
2019-02-15T13:55:03.493Z,11.01
2019-02-15T13:57:52.007Z,11.08
2019-02-15T14:00:39.950Z,11.13
2019-02-15T14:03:27.826Z,11.05
2019-02-15T14:06:15.780Z,11.19
2019-02-15T14:09:05.076Z,11.07
2019-02-15T14:11:53.068Z,11.13
2019-02-15T14:14:40.928Z,11.18
2019-02-15T14:17:28.814Z,11.21
2019-02-15T14:20:16.817Z,11.17
2019-02-15T14:23:05.241Z,11.20
2019-02-15T14:25:53.064Z,11.27
2019-02-15T14:28:41.187Z,11.36
2019-02-15T14:31:28.790Z,11.40
2019-02-15T14:34:16.689Z,11.41
2019-02-15T14:37:04.506Z,11.43
2019-02-15T14:39:52.604Z,11.34
2019-02-15T14:42:40.616Z,11.17
2019-02-15T14:45:28.650Z,11.07
2019-02-15T14:48:16.834Z,11.19
2019-02-15T14:51:04.515Z,11.20
2019-02-15T14:53:52.687Z,11.10
2019-02-15T14:56:40.334Z,10.97
2019-02-15T14:59:28.403Z,11.02
2019-02-15T15:02:16.333Z,11.15
2019-02-15T15:05:04.580Z,11.05
2019-02-15T15:07:52.226Z,11.12
2019-02-15T15:10:40.171Z,11.10
2019-02-15T15:13:28.239Z,11.07
2019-02-15T15:16:17.772Z,11.02
2019-02-15T15:19:05.861Z,11.01
2019-02-15T15:21:53.840Z,10.93
2019-02-15T15:24:42.084Z,10.89
2019-02-15T15:27:30.031Z,10.87
2019-02-15T15:30:18.475Z,10.79
2019-02-15T15:33:06.722Z,10.70
2019-02-15T15:35:54.658Z,10.67
2019-02-15T15:38:42.642Z,10.67
2019-02-15T15:41:30.794Z,10.59
2019-02-15T15:44:19.054Z,10.40
2019-02-15T15:47:07.450Z,10.30
2019-02-15T15:49:55.312Z,10.26
2019-02-15T15:52:43.643Z,10.25
2019-02-15T15:55:31.794Z,10.25
2019-02-15T15:58:20.023Z,10.11
2019-02-15T16:01:07.831Z,10.10
2019-02-15T16:03:55.439Z,9.91
2019-02-15T16:06:43.778Z,9.99
2019-02-15T16:09:32.657Z,9.76
2019-02-15T16:12:20.535Z,9.58
2019-02-15T16:15:09.620Z,9.47
2019-02-15T16:17:57.841Z,9.31
2019-02-15T16:20:45.850Z,9.23
2019-02-15T16:23:33.878Z,9.18
2019-02-15T16:26:22.102Z,9.03
2019-02-15T16:29:10.374Z,8.89
2019-02-15T16:31:58.376Z,8.87
2019-02-15T16:34:46.448Z,8.85
2019-02-15T16:37:34.013Z,8.71
2019-02-15T16:40:22.117Z,8.54
2019-02-15T16:43:10.058Z,8.48
2019-02-15T16:45:58.131Z,8.27
2019-02-15T16:48:45.877Z,8.18
2019-02-15T16:51:34.069Z,8.07
2019-02-15T16:54:21.658Z,7.94
2019-02-15T16:57:09.426Z,7.95
2019-02-15T16:59:57.614Z,7.76
2019-02-15T17:02:45.350Z,7.72
2019-02-15T17:05:33.784Z,7.64
2019-02-15T17:08:21.687Z,7.68
2019-02-15T17:11:09.961Z,7.54
2019-02-15T17:13:59.857Z,7.62
2019-02-15T17:16:48.278Z,7.54
2019-02-15T17:19:36.142Z,7.31
2019-02-15T17:22:24.203Z,7.25
2019-02-15T17:25:13.331Z,7.23
2019-02-15T17:28:01.259Z,7.26
2019-02-15T17:30:49.134Z,7.15
2019-02-15T17:33:37.126Z,7.03
2019-02-15T17:36:25.008Z,6.92
2019-02-15T17:39:12.638Z,6.82
2019-02-15T17:42:00.770Z,6.78
2019-02-15T17:44:48.842Z,6.74
2019-02-15T17:47:36.785Z,7.04
2019-02-15T17:50:24.910Z,7.04
2019-02-15T17:53:12.724Z,7.22
2019-02-15T17:56:00.283Z,7.25
2019-02-15T17:58:48.721Z,6.87
2019-02-15T18:01:36.618Z,6.80
2019-02-15T18:04:24.747Z,6.78
2019-02-15T18:07:12.844Z,6.47
2019-02-15T18:10:00.791Z,6.43
2019-02-15T18:12:48.682Z,6.46
2019-02-15T18:15:36.524Z,6.64
2019-02-15T18:18:24.460Z,6.60
2019-02-15T18:21:12.357Z,6.46
2019-02-15T18:24:00.726Z,6.41
2019-02-15T18:26:49.327Z,6.71
2019-02-15T18:29:37.406Z,6.70
2019-02-15T18:32:25.562Z,6.62
2019-02-15T18:35:13.458Z,6.45
2019-02-15T18:38:01.767Z,6.23
2019-02-15T18:40:50.430Z,6.46
2019-02-15T18:43:38.296Z,6.36
2019-02-15T18:46:25.952Z,6.16
2019-02-15T18:49:19.425Z,5.95
2019-02-15T18:52:03.575Z,5.95
2019-02-15T18:54:52.092Z,5.95
2019-02-15T18:57:40.657Z,5.86
2019-02-15T19:00:28.673Z,5.98
2019-02-15T19:03:17.175Z,5.87
2019-02-15T19:06:04.758Z,5.84
2019-02-15T19:08:53.177Z,6.03
2019-02-15T19:11:41.061Z,5.96
2019-02-15T19:14:29.123Z,5.97
2019-02-15T19:17:17.080Z,5.90
2019-02-15T19:20:05.445Z,5.72
2019-02-15T19:22:53.582Z,5.80
2019-02-15T19:25:41.734Z,5.81
2019-02-15T19:28:29.524Z,5.81
2019-02-15T19:31:17.403Z,5.81
2019-02-15T19:34:05.283Z,5.82
2019-02-15T19:36:53.854Z,5.68
2019-02-15T19:39:41.851Z,5.72
2019-02-15T19:42:30.000Z,5.83
2019-02-15T19:45:18.301Z,5.90
2019-02-15T19:48:06.285Z,5.79
2019-02-15T19:50:54.540Z,5.58
2019-02-15T19:53:42.761Z,5.48
2019-02-15T19:56:30.665Z,5.32
2019-02-15T19:59:18.313Z,5.28
2019-02-15T20:02:06.204Z,5.22
2019-02-15T20:04:53.800Z,5.19
2019-02-15T20:07:41.979Z,5.06
2019-02-15T20:10:30.273Z,5.03
2019-02-15T20:13:18.488Z,4.94
2019-02-15T20:16:06.690Z,4.99
2019-02-15T20:18:54.791Z,5.09
2019-02-15T20:21:42.675Z,5.05
2019-02-15T20:24:30.752Z,5.11
2019-02-15T20:27:18.665Z,5.01
2019-02-15T20:30:09.791Z,4.97
2019-02-15T20:32:57.921Z,4.87
2019-02-15T20:35:46.135Z,4.80
2019-02-15T20:38:34.539Z,4.87
2019-02-15T20:41:22.769Z,4.90
2019-02-15T20:44:10.595Z,4.86
2019-02-15T20:46:59.122Z,4.94
2019-02-15T20:49:47.146Z,4.93
2019-02-15T20:52:35.244Z,4.95
2019-02-15T20:55:23.345Z,4.95
2019-02-15T20:58:11.517Z,4.94
2019-02-15T21:01:00.331Z,4.80
2019-02-15T21:03:48.326Z,4.68
2019-02-15T21:06:36.276Z,4.58
2019-02-15T21:09:24.074Z,4.58
2019-02-15T21:12:11.902Z,4.47
2019-02-15T21:14:59.993Z,4.47
2019-02-15T21:17:48.085Z,4.37
2019-02-15T21:20:35.959Z,4.46
2019-02-15T21:23:24.295Z,4.35
2019-02-15T21:26:11.813Z,4.39
2019-02-15T21:29:00.016Z,4.37
2019-02-15T21:31:47.831Z,4.26
2019-02-15T21:34:36.211Z,4.16
2019-02-15T21:37:23.994Z,4.12
2019-02-15T21:40:13.364Z,4.12
2019-02-15T21:43:01.525Z,4.11
2019-02-15T21:45:49.527Z,4.15
2019-02-15T21:48:37.627Z,4.11
2019-02-15T21:51:25.503Z,4.00
2019-02-15T21:54:13.827Z,3.96
2019-02-15T21:57:01.833Z,4.06
2019-02-15T21:59:50.537Z,4.07
2019-02-15T22:02:38.101Z,4.09
2019-02-15T22:05:25.779Z,3.97
2019-02-15T22:08:13.719Z,3.89
2019-02-15T22:11:02.281Z,3.87
2019-02-15T22:13:50.191Z,3.96
2019-02-15T22:16:38.139Z,3.90
2019-02-15T22:19:25.806Z,3.67
2019-02-15T22:22:13.760Z,3.45
2019-02-15T22:25:01.881Z,3.23
2019-02-15T22:27:49.803Z,3.32
2019-02-15T22:30:37.970Z,3.43
2019-02-15T22:33:25.630Z,3.46
2019-02-15T22:36:13.487Z,3.62
2019-02-15T22:39:01.379Z,3.31
2019-02-15T22:41:49.634Z,3.44
2019-02-15T22:44:37.538Z,3.52
2019-02-15T22:47:25.054Z,3.51
2019-02-15T22:50:13.126Z,3.53
2019-02-15T22:53:01.199Z,3.51
2019-02-15T22:55:49.494Z,3.41
2019-02-15T22:58:37.700Z,3.38
2019-02-15T23:01:25.986Z,3.35
2019-02-15T23:04:14.003Z,3.17
2019-02-15T23:07:03.225Z,3.13
2019-02-15T23:09:51.277Z,3.14
2019-02-15T23:12:39.375Z,3.23
2019-02-15T23:15:27.058Z,3.32
2019-02-15T23:18:15.289Z,3.07
2019-02-15T23:21:03.217Z,2.82
2019-02-15T23:23:50.990Z,2.75
2019-02-15T23:26:38.910Z,2.74
2019-02-15T23:29:27.113Z,2.81
2019-02-15T23:32:15.067Z,2.92
2019-02-15T23:35:03.360Z,2.77
2019-02-15T23:37:51.147Z,3.04
2019-02-15T23:40:38.978Z,3.01
2019-02-15T23:43:26.801Z,2.82
2019-02-15T23:46:14.715Z,2.63
2019-02-15T23:49:02.633Z,2.44
2019-02-15T23:51:50.806Z,2.29
2019-02-15T23:54:38.919Z,2.31
2019-02-15T23:57:27.029Z,2.20
